DAL36 KATL-EGLL
Flight info
| Callsign | DAL36 |
|---|---|
| Flight time | N/A |
| Altitude | 33000 |
| Route | SMKEY2 BOBBD Q71 PSB DCT CFB DCT CABCI/N0464F350 DCT MIILS N545A UMESI/M079F360 DCT 5130N05000W 5330N04000W 5430N03000W 5430N02000W DCT NEBIN DCT OLGON/N0454F370 DCT INKUR DCT LIFFY UL975 MALUD Q38 NUGRA |
| Aircraft | B764/H-SDE3FGHIM3RWXY/LB1 |
Departure
| Time | 2026-05-07 14:00 |
|---|---|
| Airport | Hartsfield Jackson Atlanta International Airport (KATL) |
Arrival
| Time | N/A |
|---|---|
| Airport | London Heathrow Airport (EGLL) |
| Time | Latitude | Longitude | Altitude | Speed | Heading |
|---|---|---|---|---|---|
| 2026-05-07 13:30 | 33.64246 | -84.42636 | 1027 ft | 0 kts | 90° |
| 2026-05-07 13:50 | 33.64246 | -84.42637 | 1026 ft | 0 kts | 90° |
| 2026-05-07 13:51 | 33.64246 | -84.42651 | 1027 ft | 2 kts | 90° |
| 2026-05-07 13:51 | 33.64245 | -84.42668 | 1027 ft | 1 kts | 90° |
| 2026-05-07 13:51 | 33.64245 | -84.42680 | 1027 ft | 2 kts | 84° |
| 2026-05-07 13:52 | 33.64241 | -84.42697 | 1027 ft | 2 kts | 64° |
| 2026-05-07 13:52 | 33.64233 | -84.42712 | 1027 ft | 2 kts | 47° |
| 2026-05-07 13:52 | 33.64222 | -84.42724 | 1027 ft | 2 kts | 31° |
| 2026-05-07 13:52 | 33.64209 | -84.42731 | 1027 ft | 2 kts | 14° |
| 2026-05-07 13:53 | 33.64197 | -84.42733 | 1027 ft | 0 kts | 1° |
| 2026-05-07 13:53 | 33.64194 | -84.42733 | 1027 ft | 0 kts | 360° |
| 2026-05-07 13:55 | 33.64199 | -84.42733 | 1027 ft | 6 kts | 360° |
| 2026-05-07 13:55 | 33.64340 | -84.42734 | 1027 ft | 31 kts | 0° |
| 2026-05-07 13:55 | 33.64426 | -84.42733 | 1027 ft | 14 kts | 5° |
| 2026-05-07 13:56 | 33.64469 | -84.42666 | 1026 ft | 10 kts | 83° |
| 2026-05-07 13:56 | 33.64468 | -84.42602 | 1024 ft | 3 kts | 92° |
| 2026-05-07 13:56 | 33.64467 | -84.42513 | 1022 ft | 17 kts | 90° |
| 2026-05-07 13:56 | 33.64473 | -84.42317 | 1018 ft | 29 kts | 83° |
| 2026-05-07 13:57 | 33.64537 | -84.42084 | 1017 ft | 28 kts | 79° |
| 2026-05-07 13:57 | 33.64542 | -84.41840 | 1012 ft | 28 kts | 90° |
| 2026-05-07 13:57 | 33.64543 | -84.41609 | 1013 ft | 25 kts | 89° |
| 2026-05-07 13:57 | 33.64546 | -84.41415 | 1016 ft | 21 kts | 90° |
| 2026-05-07 13:58 | 33.64545 | -84.41257 | 1020 ft | 17 kts | 90° |
| 2026-05-07 13:58 | 33.64544 | -84.41121 | 1023 ft | 15 kts | 91° |
| 2026-05-07 13:58 | 33.64542 | -84.40991 | 1025 ft | 15 kts | 92° |
| 2026-05-07 13:58 | 33.64541 | -84.40867 | 1029 ft | 14 kts | 86° |
| 2026-05-07 13:59 | 33.64595 | -84.40796 | 1032 ft | 11 kts | 11° |
| 2026-05-07 13:59 | 33.64669 | -84.40827 | 1031 ft | 14 kts | 303° |
| 2026-05-07 13:59 | 33.64680 | -84.41019 | 1025 ft | 41 kts | 269° |
| 2026-05-07 13:59 | 33.64702 | -84.41585 | 1014 ft | 93 kts | 274° |
| 2026-05-07 14:00 | 33.64686 | -84.42539 | 1019 ft | 137 kts | 270° |
| 2026-05-07 14:00 | 33.64678 | -84.43860 | 1037 ft | 176 kts | 271° |
| 2026-05-07 14:00 | 33.64581 | -84.45413 | 1320 ft | 190 kts | 265° |
| 2026-05-07 14:00 | 33.64569 | -84.46987 | 1795 ft | 193 kts | 291° |
| 2026-05-07 14:01 | 33.65216 | -84.48399 | 2239 ft | 198 kts | 303° |
| 2026-05-07 14:01 | 33.65947 | -84.49905 | 2342 ft | 221 kts | 298° |
| 2026-05-07 14:01 | 33.66673 | -84.51599 | 2716 ft | 230 kts | 297° |
| 2026-05-07 14:01 | 33.67366 | -84.53291 | 3360 ft | 227 kts | 296° |
| 2026-05-07 14:02 | 33.68047 | -84.55000 | 3953 ft | 227 kts | 295° |
| 2026-05-07 14:02 | 33.68775 | -84.56672 | 4505 ft | 229 kts | 305° |
| 2026-05-07 14:02 | 33.70047 | -84.57830 | 4984 ft | 239 kts | 336° |
| 2026-05-07 14:02 | 33.71730 | -84.58093 | 5487 ft | 250 kts | 354° |
| 2026-05-07 14:03 | 33.73470 | -84.58097 | 5986 ft | 252 kts | 353° |
| 2026-05-07 14:03 | 33.75251 | -84.58104 | 6453 ft | 257 kts | 353° |
| 2026-05-07 14:03 | 33.77032 | -84.58098 | 6972 ft | 258 kts | 353° |
| 2026-05-07 14:03 | 33.78845 | -84.58086 | 7427 ft | 262 kts | 353° |
| 2026-05-07 14:04 | 33.80655 | -84.57992 | 7936 ft | 269 kts | 4° |
| 2026-05-07 14:04 | 33.82448 | -84.57134 | 8396 ft | 283 kts | 22° |
| 2026-05-07 14:04 | 33.84200 | -84.55989 | 8853 ft | 286 kts | 22° |
| 2026-05-07 14:04 | 33.85939 | -84.54858 | 9321 ft | 289 kts | 22° |
| 2026-05-07 14:05 | 33.87734 | -84.53676 | 9770 ft | 293 kts | 22° |
| 2026-05-07 14:05 | 33.89519 | -84.52494 | 10228 ft | 296 kts | 22° |
| 2026-05-07 14:05 | 33.91318 | -84.51299 | 10632 ft | 300 kts | 22° |
| 2026-05-07 14:05 | 33.93169 | -84.50068 | 11031 ft | 305 kts | 22° |
| 2026-05-07 14:06 | 33.95040 | -84.48822 | 11463 ft | 309 kts | 22° |
| 2026-05-07 14:06 | 33.96978 | -84.47539 | 11507 ft | 333 kts | 23° |
| 2026-05-07 14:06 | 33.99100 | -84.46129 | 11567 ft | 358 kts | 23° |
| 2026-05-07 14:06 | 34.01325 | -84.44644 | 11746 ft | 378 kts | 24° |
| 2026-05-07 14:07 | 34.03651 | -84.43085 | 12386 ft | 383 kts | 23° |
| 2026-05-07 14:07 | 34.06014 | -84.41502 | 12947 ft | 392 kts | 23° |
| 2026-05-07 14:07 | 34.08405 | -84.39901 | 13574 ft | 397 kts | 23° |
| 2026-05-07 14:07 | 34.10826 | -84.38278 | 14255 ft | 400 kts | 22° |
| 2026-05-07 14:08 | 34.13260 | -84.36647 | 14870 ft | 405 kts | 22° |
| 2026-05-07 14:08 | 34.15742 | -84.34982 | 15550 ft | 409 kts | 21° |
| 2026-05-07 14:08 | 34.18232 | -84.33312 | 16207 ft | 412 kts | 21° |
| 2026-05-07 14:08 | 34.20725 | -84.31640 | 16756 ft | 419 kts | 21° |
| 2026-05-07 14:09 | 34.23271 | -84.29929 | 17438 ft | 421 kts | 20° |
| 2026-05-07 14:09 | 34.25864 | -84.28187 | 18105 ft | 424 kts | 20° |
| 2026-05-07 14:09 | 34.28482 | -84.26574 | 18741 ft | 418 kts | 11° |
| 2026-05-07 14:09 | 34.31204 | -84.25658 | 19236 ft | 409 kts | 0° |
| 2026-05-07 14:10 | 34.34029 | -84.25003 | 19754 ft | 416 kts | 1° |
| 2026-05-07 14:10 | 34.36857 | -84.24323 | 20469 ft | 415 kts | 0° |
| 2026-05-07 14:10 | 34.39708 | -84.23651 | 20965 ft | 420 kts | 0° |
| 2026-05-07 14:10 | 34.42616 | -84.22969 | 21382 ft | 427 kts | 0° |
| 2026-05-07 14:11 | 34.45538 | -84.22279 | 21951 ft | 429 kts | 0° |
| 2026-05-07 14:11 | 34.48480 | -84.21587 | 22474 ft | 432 kts | 0° |
| 2026-05-07 14:11 | 34.51445 | -84.20893 | 22854 ft | 438 kts | 0° |
| 2026-05-07 14:11 | 34.54427 | -84.20188 | 23429 ft | 438 kts | 0° |
| 2026-05-07 14:12 | 34.57452 | -84.19480 | 23811 ft | 443 kts | 0° |
| 2026-05-07 14:12 | 34.60452 | -84.18772 | 24272 ft | 447 kts | 0° |
| 2026-05-07 14:12 | 34.63522 | -84.18049 | 24707 ft | 450 kts | 359° |
| 2026-05-07 14:12 | 34.66609 | -84.17321 | 25161 ft | 452 kts | 359° |
| 2026-05-07 14:13 | 34.69702 | -84.16590 | 25512 ft | 457 kts | 359° |
| 2026-05-07 14:13 | 34.72835 | -84.15853 | 25895 ft | 460 kts | 359° |
| 2026-05-07 14:13 | 34.75967 | -84.15112 | 26249 ft | 463 kts | 359° |
| 2026-05-07 14:13 | 34.79128 | -84.14257 | 26734 ft | 466 kts | 1° |
| 2026-05-07 14:14 | 34.82333 | -84.13369 | 27010 ft | 469 kts | 1° |
| 2026-05-07 14:14 | 34.85508 | -84.12483 | 27336 ft | 473 kts | 0° |
| 2026-05-07 14:14 | 34.88715 | -84.11593 | 27700 ft | 473 kts | 0° |
| 2026-05-07 14:14 | 34.91954 | -84.10692 | 27911 ft | 479 kts | 0° |
| 2026-05-07 14:15 | 34.95204 | -84.09791 | 28153 ft | 482 kts | 0° |
| 2026-05-07 14:15 | 34.98467 | -84.08878 | 28568 ft | 482 kts | 0° |
| 2026-05-07 14:15 | 35.01736 | -84.07969 | 28769 ft | 486 kts | 0° |
| 2026-05-07 14:15 | 35.05067 | -84.07040 | 29132 ft | 486 kts | 0° |
| 2026-05-07 14:16 | 35.08331 | -84.06127 | 29430 ft | 487 kts | 0° |
| 2026-05-07 14:16 | 35.11677 | -84.05196 | 29606 ft | 491 kts | 0° |
| 2026-05-07 14:16 | 35.15001 | -84.04266 | 29802 ft | 495 kts | 0° |
| 2026-05-07 14:16 | 35.18360 | -84.03323 | 30202 ft | 493 kts | 360° |
| 2026-05-07 14:17 | 35.21701 | -84.02389 | 30351 ft | 498 kts | 0° |
| 2026-05-07 14:17 | 35.25099 | -84.01438 | 30642 ft | 498 kts | 0° |
| 2026-05-07 14:17 | 35.28463 | -84.00488 | 31023 ft | 497 kts | 359° |
| 2026-05-07 14:17 | 35.31863 | -83.99536 | 31275 ft | 498 kts | 359° |
| 2026-05-07 14:18 | 35.35195 | -83.98597 | 31619 ft | 498 kts | 359° |
| 2026-05-07 14:18 | 35.38594 | -83.97645 | 31847 ft | 498 kts | 359° |
| 2026-05-07 14:18 | 35.41953 | -83.96692 | 32349 ft | 494 kts | 359° |
| 2026-05-07 14:19 | 35.48668 | -83.94802 | 32811 ft | 494 kts | 359° |
| 2026-05-07 14:19 | 35.52017 | -83.93851 | 32960 ft | 489 kts | 358° |
| 2026-05-07 14:19 | 35.55328 | -83.92921 | 32978 ft | 490 kts | 358° |
| 2026-05-07 14:20 | 35.61993 | -83.91040 | 32964 ft | 493 kts | 359° |
| 2026-05-07 14:20 | 35.68671 | -83.89146 | 32971 ft | 492 kts | 358° |
| 2026-05-07 14:21 | 35.75319 | -83.87259 | 32983 ft | 490 kts | 358° |
| 2026-05-07 14:21 | 35.78637 | -83.86181 | 32980 ft | 501 kts | 5° |
| 2026-05-07 14:21 | 35.81935 | -83.84489 | 33011 ft | 519 kts | 14° |
| 2026-05-07 14:22 | 35.88325 | -83.80190 | 33005 ft | 525 kts | 16° |
| 2026-05-07 14:22 | 35.94682 | -83.75848 | 32996 ft | 524 kts | 16° |
| 2026-05-07 14:23 | 36.01076 | -83.71464 | 33002 ft | 527 kts | 17° |
| 2026-05-07 14:23 | 36.07489 | -83.67048 | 32998 ft | 527 kts | 17° |
| 2026-05-07 14:24 | 36.13866 | -83.62650 | 32984 ft | 526 kts | 16° |
| 2026-05-07 14:24 | 36.20276 | -83.58224 | 32992 ft | 529 kts | 17° |
| 2026-05-07 14:25 | 36.26721 | -83.53760 | 32997 ft | 529 kts | 17° |
| 2026-05-07 14:25 | 36.33145 | -83.49304 | 32992 ft | 529 kts | 17° |
| 2026-05-07 14:26 | 36.39572 | -83.44840 | 32995 ft | 531 kts | 17° |
| 2026-05-07 14:26 | 36.46016 | -83.40354 | 32990 ft | 533 kts | 17° |
| 2026-05-07 14:27 | 36.52460 | -83.35859 | 33007 ft | 535 kts | 17° |
| 2026-05-07 14:27 | 36.58950 | -83.31320 | 32987 ft | 533 kts | 17° |
| 2026-05-07 14:28 | 36.65428 | -83.26785 | 32987 ft | 535 kts | 17° |
| 2026-05-07 14:28 | 36.71912 | -83.22237 | 32992 ft | 538 kts | 17° |
| 2026-05-07 14:29 | 36.78424 | -83.17655 | 32987 ft | 536 kts | 17° |
| 2026-05-07 14:29 | 36.84916 | -83.13082 | 32995 ft | 536 kts | 17° |
| 2026-05-07 14:30 | 36.91411 | -83.08459 | 32990 ft | 544 kts | 21° |
| 2026-05-07 14:30 | 36.94502 | -83.05675 | 33015 ft | 558 kts | 30° |
| 2026-05-07 14:30 | 36.97356 | -83.02294 | 33015 ft | 572 kts | 40° |
| 2026-05-07 14:31 | 37.02356 | -82.94503 | 33002 ft | 580 kts | 45° |
| 2026-05-07 14:31 | 37.07286 | -82.86589 | 33010 ft | 576 kts | 45° |
| 2026-05-07 14:32 | 37.12125 | -82.78569 | 32998 ft | 576 kts | 47° |
| 2026-05-07 14:32 | 37.16916 | -82.70549 | 32994 ft | 578 kts | 46° |
| 2026-05-07 14:33 | 37.21740 | -82.62454 | 32998 ft | 579 kts | 47° |
| 2026-05-07 14:33 | 37.26518 | -82.54414 | 33002 ft | 578 kts | 46° |
| 2026-05-07 14:34 | 37.31328 | -82.46302 | 33002 ft | 578 kts | 46° |
| 2026-05-07 14:34 | 37.36081 | -82.38271 | 33004 ft | 577 kts | 46° |
| 2026-05-07 14:35 | 37.40867 | -82.30166 | 32968 ft | 577 kts | 47° |
| 2026-05-07 14:35 | 37.45634 | -82.22066 | 32973 ft | 578 kts | 47° |
| 2026-05-07 14:36 | 37.50738 | -82.14336 | 32990 ft | 566 kts | 34° |
| 2026-05-07 14:36 | 37.53704 | -82.11211 | 32986 ft | 555 kts | 25° |
| 2026-05-07 14:36 | 37.56856 | -82.08417 | 32987 ft | 553 kts | 24° |
| 2026-05-07 14:37 | 37.63131 | -82.02946 | 32980 ft | 549 kts | 22° |
| 2026-05-07 14:37 | 37.72632 | -81.94751 | 32998 ft | 552 kts | 22° |
| 2026-05-07 14:38 | 37.78947 | -81.89301 | 32993 ft | 550 kts | 22° |
| 2026-05-07 14:38 | 37.85265 | -81.83845 | 32995 ft | 552 kts | 22° |
| 2026-05-07 14:39 | 37.91613 | -81.78351 | 32991 ft | 556 kts | 23° |
| 2026-05-07 14:39 | 37.97994 | -81.72813 | 32989 ft | 556 kts | 22° |
| 2026-05-07 14:40 | 38.04362 | -81.67276 | 33002 ft | 555 kts | 22° |
| 2026-05-07 14:40 | 38.10690 | -81.61762 | 33005 ft | 555 kts | 22° |
| 2026-05-07 14:41 | 38.17094 | -81.56169 | 33001 ft | 556 kts | 22° |
| 2026-05-07 14:41 | 38.23435 | -81.50619 | 33011 ft | 555 kts | 23° |
| 2026-05-07 14:42 | 38.29779 | -81.45055 | 33002 ft | 556 kts | 22° |
| 2026-05-07 14:42 | 38.36151 | -81.39457 | 33009 ft | 558 kts | 22° |
| 2026-05-07 14:43 | 38.42139 | -81.34177 | 32992 ft | 553 kts | 24° |
| 2026-05-07 14:43 | 38.48483 | -81.28580 | 32979 ft | 556 kts | 23° |
| 2026-05-07 14:44 | 38.54816 | -81.22978 | 32968 ft | 556 kts | 23° |
| 2026-05-07 14:44 | 38.61167 | -81.17348 | 32972 ft | 556 kts | 24° |
| 2026-05-07 14:45 | 38.67527 | -81.11697 | 32972 ft | 558 kts | 23° |
| 2026-05-07 14:45 | 38.73882 | -81.06037 | 32972 ft | 555 kts | 24° |
| 2026-05-07 14:46 | 38.80189 | -81.00412 | 32976 ft | 559 kts | 24° |
| 2026-05-07 14:46 | 38.86617 | -80.94660 | 32969 ft | 560 kts | 24° |
| 2026-05-07 14:47 | 38.92932 | -80.88999 | 32967 ft | 556 kts | 23° |
| 2026-05-07 14:47 | 38.99259 | -80.83273 | 32974 ft | 561 kts | 27° |
| 2026-05-07 14:48 | 39.02211 | -80.79975 | 32990 ft | 575 kts | 37° |
| 2026-05-07 14:48 | 39.04956 | -80.76199 | 32995 ft | 582 kts | 40° |
| 2026-05-07 14:48 | 39.10389 | -80.68463 | 32971 ft | 579 kts | 40° |
| 2026-05-07 14:49 | 39.15754 | -80.60758 | 32967 ft | 576 kts | 40° |
| 2026-05-07 14:49 | 39.21106 | -80.53045 | 32986 ft | 578 kts | 40° |
| 2026-05-07 14:50 | 39.26411 | -80.45377 | 32989 ft | 577 kts | 40° |
| 2026-05-07 14:50 | 39.31785 | -80.37582 | 33004 ft | 581 kts | 40° |
| 2026-05-07 14:51 | 39.37098 | -80.29856 | 32963 ft | 577 kts | 40° |
| 2026-05-07 14:51 | 39.42466 | -80.22034 | 32980 ft | 579 kts | 41° |
| 2026-05-07 14:52 | 39.47783 | -80.14268 | 32973 ft | 580 kts | 41° |
| 2026-05-07 14:52 | 39.53319 | -80.06159 | 32977 ft | 582 kts | 41° |
| 2026-05-07 14:53 | 39.58692 | -79.98274 | 32988 ft | 584 kts | 40° |
| 2026-05-07 14:53 | 39.64056 | -79.90382 | 33001 ft | 584 kts | 41° |
| 2026-05-07 14:54 | 39.69383 | -79.82529 | 32988 ft | 580 kts | 40° |
| 2026-05-07 14:54 | 39.74707 | -79.74656 | 32991 ft | 580 kts | 41° |
| 2026-05-07 14:55 | 39.80027 | -79.66774 | 32989 ft | 584 kts | 41° |
| 2026-05-07 14:55 | 39.85346 | -79.58864 | 32973 ft | 581 kts | 40° |
| 2026-05-07 14:56 | 39.90639 | -79.50977 | 32992 ft | 581 kts | 40° |
| 2026-05-07 14:56 | 39.95945 | -79.43051 | 32995 ft | 580 kts | 41° |
| 2026-05-07 14:57 | 40.01257 | -79.35099 | 32979 ft | 581 kts | 40° |
| 2026-05-07 14:57 | 40.06472 | -79.27271 | 32970 ft | 583 kts | 41° |
| 2026-05-07 14:58 | 40.11753 | -79.19320 | 32955 ft | 582 kts | 41° |
| 2026-05-07 14:58 | 40.17078 | -79.11375 | 32958 ft | 581 kts | 41° |
| 2026-05-07 14:59 | 40.22393 | -79.03521 | 32944 ft | 577 kts | 41° |
| 2026-05-07 14:59 | 40.27716 | -78.95632 | 32949 ft | 580 kts | 41° |
| 2026-05-07 15:00 | 40.33030 | -78.87738 | 32940 ft | 577 kts | 40° |
| 2026-05-07 15:00 | 40.38321 | -78.79856 | 32961 ft | 578 kts | 41° |
| 2026-05-07 15:01 | 40.43596 | -78.71978 | 32943 ft | 576 kts | 40° |
| 2026-05-07 15:01 | 40.48902 | -78.64037 | 32939 ft | 578 kts | 42° |
| 2026-05-07 15:02 | 40.54189 | -78.56096 | 32941 ft | 577 kts | 42° |
| 2026-05-07 15:02 | 40.59428 | -78.48206 | 32947 ft | 576 kts | 41° |
| 2026-05-07 15:03 | 40.64682 | -78.40284 | 32965 ft | 577 kts | 42° |